Inwood, Iowa
Current Conditions -  °F | °C
As of 8:14 PM on Saturday 25 Oct 2014 (Local Time) from KLYV Reporting Station
Clear Clear  
Wind Chill: 52°   Ceiling: Unl
Heat Index: 52°   Visibility: 10mi
Dew Point: 34°   Wind: 3mph
Humidity: 50%   Direction: 40°NE
Pressure: 30.08"   Gusts: NA
Location:  43.31°N, 96.43°W
Report Text: KLYV 260114Z AUTO 04003KT 10SM CLR 11/01 A3008 RMK AO2
Loading
Personal Weather Stations






























Interactive Weather Map
Tropical Storm Tracking
New forecast layout! Learn more

10-Day Weather Forecast

Advertisements
Track Severe Weather on mobile